Hauptseite
METAR-TAF:

METAR-TAF

Flughäfen :

Flughafen Kuwait

Kuwait-Stadt, Kuwait

Breite: 29-13N, Länge: 047-59E, Höhe: 55 m

Beobachtung

Neuester Wetterbericht von vor 11 Minuten, um 04:00 UTC
Wind 18 kt aus Nord/Nordwest
Temperatur 33°C
Luftfeuchtigkeit 23%
Luftdruck 1003 hPa
Sichtweite 10 km oder mehr
keine Wolken unter 1500 m und keine Kumulonimbus oder Gewitterwolken

METAR: OKBK 230400Z 33018KT CAVOK 33/09 Q1003 NOSIG

Zeit: 07:11 (04:11 UTC)

Prognose

Neuester Wetterbericht von vor 5 Stunden und 26 Minuten, um 22:45 UTC
Gültige Prognose vom 23 um 00 UTC bis 24 um 06 UTC
Wind 15 kt aus Nord/Nordwest, Böen bis zu 25 kt
Sichtweite: 6000 m
Himmel klar
Zeitweise
vom 23 um 06 UTC bis 23 um 18 UTC
Sichtweite: 2000 m
Staubtreiben

TAF: OKBK 222245Z 2300/2406 34015G25KT 6000 SKC TEMPO 2306/2318 2000 BLDU

Wetterbeobachtungen und Prognosen von mehr als 4000 Flughäfen (METAR und TAF Bericht).

Die verfügbaren Stationen werden durch gelbe und rote Markierungen auf der Karte dargestellt.

Führen Sie die Maus auf sie, um den Namen der Station zu sehen.

Darauf klicken, um die Beobachtung von Wetterbeobachtungen und Prognosen zu sehen.

Um die Karte zu ändern : klicken Sie auf den grünen Tasten mit einem schwarzen Kreuz Zum Vergrößern, auf den grünen Button mit einem Gedankenstrich zu verkleinern, oder auf die grünen Pfeile für benachbarte Karten.


METAR-TAF: